Terminal Aerodrome Forecast
Issued by NWS

Home | Current Version | Previous Version | Text Only | Print | Product List | Glossary On
Versions: 1 2 3 4 5 6 7 8 9 10 11 12 13 14 15 16 17 18 19
321
FTPA31 PHFO 231634 AAA
TAFHTO
TAF AMD
PHTO 231634Z 2317/2412 VRB06KT P6SM VCSH OVC035
      TEMPO 2317/2321 4SM -SHRA BR OVC025
     FM232100 11009KT P6SM VCSH BKN035 BKN045=

USA.gov is the U.S. government's official web portal to all federal, state and local government web resources and services.